sensor_id;sensor_type;location;lat;lon;timestamp;P1;durP1;ratioP1;P2;durP2;ratioP2
39020;SDS011;25188;51.958;5.842;2023-08-12T00:01:47;13.05;;;6.53;;
39020;SDS011;25188;51.958;5.842;2023-08-12T00:04:13;13.88;;;7.40;;
39020;SDS011;25188;51.958;5.842;2023-08-12T00:06:40;10.82;;;6.93;;
39020;SDS011;25188;51.958;5.842;2023-08-12T00:09:06;11.85;;;6.53;;
39020;SDS011;25188;51.958;5.842;2023-08-12T00:11:34;10.00;;;6.25;;
39020;SDS011;25188;51.958;5.842;2023-08-12T00:14:00;9.13;;;6.13;;
39020;SDS011;25188;51.958;5.842;2023-08-12T00:16:25;13.63;;;6.55;;
39020;SDS011;25188;51.958;5.842;2023-08-12T00:18:51;15.05;;;7.68;;
39020;SDS011;25188;51.958;5.842;2023-08-12T00:21:17;11.32;;;6.65;;
39020;SDS011;25188;51.958;5.842;2023-08-12T00:23:42;9.35;;;6.15;;
39020;SDS011;25188;51.958;5.842;2023-08-12T00:26:09;11.25;;;6.78;;
39020;SDS011;25188;51.958;5.842;2023-08-12T00:28:35;13.00;;;6.30;;
39020;SDS011;25188;51.958;5.842;2023-08-12T00:31:01;13.88;;;6.70;;
39020;SDS011;25188;51.958;5.842;2023-08-12T00:33:28;9.85;;;6.07;;
39020;SDS011;25188;51.958;5.842;2023-08-12T00:35:53;12.65;;;7.20;;
39020;SDS011;25188;51.958;5.842;2023-08-12T00:38:19;15.68;;;6.85;;
39020;SDS011;25188;51.958;5.842;2023-08-12T00:40:45;10.98;;;6.38;;
39020;SDS011;25188;51.958;5.842;2023-08-12T00:43:11;11.55;;;6.13;;
39020;SDS011;25188;51.958;5.842;2023-08-12T00:45:36;11.00;;;6.45;;
39020;SDS011;25188;51.958;5.842;2023-08-12T00:48:03;10.07;;;6.28;;
39020;SDS011;25188;51.958;5.842;2023-08-12T00:50:29;10.88;;;5.85;;
39020;SDS011;25188;51.958;5.842;2023-08-12T00:52:55;12.23;;;6.60;;
39020;SDS011;25188;51.958;5.842;2023-08-12T00:55:23;15.27;;;6.43;;
39020;SDS011;25188;51.958;5.842;2023-08-12T00:57:48;13.05;;;6.60;;
39020;SDS011;25188;51.958;5.842;2023-08-12T01:00:15;11.48;;;5.65;;
39020;SDS011;25188;51.958;5.842;2023-08-12T01:02:45;10.88;;;6.60;;
39020;SDS011;25188;51.958;5.842;2023-08-12T01:05:13;11.80;;;6.25;;
39020;SDS011;25188;51.958;5.842;2023-08-12T01:07:40;12.90;;;6.63;;
39020;SDS011;25188;51.958;5.842;2023-08-12T01:10:07;11.10;;;6.70;;
39020;SDS011;25188;51.958;5.842;2023-08-12T01:12:41;10.85;;;6.07;;
39020;SDS011;25188;51.958;5.842;2023-08-12T01:15:28;10.95;;;5.57;;
39020;SDS011;25188;51.958;5.842;2023-08-12T01:17:54;12.73;;;6.20;;
39020;SDS011;25188;51.958;5.842;2023-08-12T01:20:23;12.15;;;6.00;;
39020;SDS011;25188;51.958;5.842;2023-08-12T01:22:58;10.48;;;6.22;;
39020;SDS011;25188;51.958;5.842;2023-08-12T01:25:32;11.82;;;6.05;;
39020;SDS011;25188;51.958;5.842;2023-08-12T01:27:58;11.27;;;6.20;;
39020;SDS011;25188;51.958;5.842;2023-08-12T01:30:23;11.38;;;6.03;;
39020;SDS011;25188;51.958;5.842;2023-08-12T01:32:53;10.43;;;6.25;;
39020;SDS011;25188;51.958;5.842;2023-08-12T01:37:58;15.50;;;6.93;;
39020;SDS011;25188;51.958;5.842;2023-08-12T01:40:25;11.93;;;6.53;;
39020;SDS011;25188;51.958;5.842;2023-08-12T01:42:54;13.73;;;7.65;;
39020;SDS011;25188;51.958;5.842;2023-08-12T01:45:20;11.52;;;6.72;;
39020;SDS011;25188;51.958;5.842;2023-08-12T01:47:45;13.20;;;7.80;;
39020;SDS011;25188;51.958;5.842;2023-08-12T01:50:11;14.02;;;7.35;;
39020;SDS011;25188;51.958;5.842;2023-08-12T01:52:37;11.07;;;7.35;;
39020;SDS011;25188;51.958;5.842;2023-08-12T01:55:03;16.02;;;8.75;;
39020;SDS011;25188;51.958;5.842;2023-08-12T01:57:29;13.98;;;8.48;;
39020;SDS011;25188;51.958;5.842;2023-08-12T01:59:54;16.33;;;8.57;;
39020;SDS011;25188;51.958;5.842;2023-08-12T02:02:20;16.63;;;8.30;;
39020;SDS011;25188;51.958;5.842;2023-08-12T02:04:46;10.63;;;7.90;;
39020;SDS011;25188;51.958;5.842;2023-08-12T02:07:11;15.00;;;9.13;;
39020;SDS011;25188;51.958;5.842;2023-08-12T02:09:37;14.05;;;8.82;;
39020;SDS011;25188;51.958;5.842;2023-08-12T02:12:03;17.98;;;9.65;;
39020;SDS011;25188;51.958;5.842;2023-08-12T02:14:29;14.73;;;8.70;;
39020;SDS011;25188;51.958;5.842;2023-08-12T02:16:54;15.07;;;8.93;;
39020;SDS011;25188;51.958;5.842;2023-08-12T02:19:20;18.50;;;9.82;;
39020;SDS011;25188;51.958;5.842;2023-08-12T02:21:45;17.17;;;9.70;;
39020;SDS011;25188;51.958;5.842;2023-08-12T02:24:11;14.70;;;10.10;;
39020;SDS011;25188;51.958;5.842;2023-08-12T02:26:37;14.68;;;9.73;;
39020;SDS011;25188;51.958;5.842;2023-08-12T02:29:03;15.35;;;10.60;;
39020;SDS011;25188;51.958;5.842;2023-08-12T02:31:29;15.50;;;9.73;;
39020;SDS011;25188;51.958;5.842;2023-08-12T02:33:54;13.63;;;9.93;;
39020;SDS011;25188;51.958;5.842;2023-08-12T02:36:20;14.88;;;9.77;;
39020;SDS011;25188;51.958;5.842;2023-08-12T02:38:45;14.50;;;10.07;;
39020;SDS011;25188;51.958;5.842;2023-08-12T02:41:11;15.13;;;10.73;;
39020;SDS011;25188;51.958;5.842;2023-08-12T02:43:37;16.70;;;10.65;;
39020;SDS011;25188;51.958;5.842;2023-08-12T02:46:02;14.48;;;10.07;;
39020;SDS011;25188;51.958;5.842;2023-08-12T02:48:28;15.98;;;10.95;;
39020;SDS011;25188;51.958;5.842;2023-08-12T02:50:53;15.05;;;10.88;;
39020;SDS011;25188;51.958;5.842;2023-08-12T02:53:19;16.30;;;10.25;;
39020;SDS011;25188;51.958;5.842;2023-08-12T02:55:45;13.70;;;10.02;;
39020;SDS011;25188;51.958;5.842;2023-08-12T02:58:10;17.02;;;10.93;;
39020;SDS011;25188;51.958;5.842;2023-08-12T03:00:36;16.20;;;11.23;;
39020;SDS011;25188;51.958;5.842;2023-08-12T03:03:02;16.05;;;10.02;;
39020;SDS011;25188;51.958;5.842;2023-08-12T03:05:29;15.00;;;10.68;;
39020;SDS011;25188;51.958;5.842;2023-08-12T03:07:56;15.77;;;10.30;;
39020;SDS011;25188;51.958;5.842;2023-08-12T03:10:22;21.92;;;11.52;;
39020;SDS011;25188;51.958;5.842;2023-08-12T03:12:48;16.95;;;11.20;;
39020;SDS011;25188;51.958;5.842;2023-08-12T03:15:13;19.17;;;11.55;;
39020;SDS011;25188;51.958;5.842;2023-08-12T03:17:39;14.55;;;10.43;;
39020;SDS011;25188;51.958;5.842;2023-08-12T03:20:06;14.00;;;11.35;;
39020;SDS011;25188;51.958;5.842;2023-08-12T03:22:33;17.02;;;11.68;;
39020;SDS011;25188;51.958;5.842;2023-08-12T03:25:00;17.95;;;11.43;;
39020;SDS011;25188;51.958;5.842;2023-08-12T03:27:26;17.83;;;11.70;;
39020;SDS011;25188;51.958;5.842;2023-08-12T03:29:51;15.13;;;10.52;;
39020;SDS011;25188;51.958;5.842;2023-08-12T03:32:17;16.50;;;11.30;;
39020;SDS011;25188;51.958;5.842;2023-08-12T03:34:43;18.60;;;11.05;;
39020;SDS011;25188;51.958;5.842;2023-08-12T03:37:08;17.20;;;10.88;;
39020;SDS011;25188;51.958;5.842;2023-08-12T03:39:34;16.95;;;10.60;;
39020;SDS011;25188;51.958;5.842;2023-08-12T03:42:00;17.77;;;11.95;;
39020;SDS011;25188;51.958;5.842;2023-08-12T03:44:25;17.80;;;11.48;;
39020;SDS011;25188;51.958;5.842;2023-08-12T03:46:51;15.10;;;10.85;;
39020;SDS011;25188;51.958;5.842;2023-08-12T03:49:17;18.25;;;11.23;;
39020;SDS011;25188;51.958;5.842;2023-08-12T03:51:42;16.50;;;10.77;;
39020;SDS011;25188;51.958;5.842;2023-08-12T03:54:08;17.48;;;11.73;;
39020;SDS011;25188;51.958;5.842;2023-08-12T03:56:33;15.77;;;11.07;;
39020;SDS011;25188;51.958;5.842;2023-08-12T03:58:59;15.65;;;10.63;;
39020;SDS011;25188;51.958;5.842;2023-08-12T04:01:25;14.57;;;10.90;;
39020;SDS011;25188;51.958;5.842;2023-08-12T04:03:50;14.82;;;11.45;;
39020;SDS011;25188;51.958;5.842;2023-08-12T04:06:16;16.35;;;10.00;;
39020;SDS011;25188;51.958;5.842;2023-08-12T04:08:41;17.38;;;11.13;;
39020;SDS011;25188;51.958;5.842;2023-08-12T04:11:07;15.18;;;10.52;;
39020;SDS011;25188;51.958;5.842;2023-08-12T04:13:33;13.77;;;9.68;;
39020;SDS011;25188;51.958;5.842;2023-08-12T04:15:58;18.40;;;9.95;;
39020;SDS011;25188;51.958;5.842;2023-08-12T04:18:24;13.85;;;9.05;;
39020;SDS011;25188;51.958;5.842;2023-08-12T04:20:50;12.57;;;9.88;;
39020;SDS011;25188;51.958;5.842;2023-08-12T04:23:18;17.55;;;10.10;;
39020;SDS011;25188;51.958;5.842;2023-08-12T04:25:44;14.13;;;9.45;;
39020;SDS011;25188;51.958;5.842;2023-08-12T04:28:14;13.48;;;9.13;;
39020;SDS011;25188;51.958;5.842;2023-08-12T04:30:44;13.05;;;8.43;;
39020;SDS011;25188;51.958;5.842;2023-08-12T04:33:10;14.20;;;8.43;;
39020;SDS011;25188;51.958;5.842;2023-08-12T04:35:37;14.80;;;9.75;;
39020;SDS011;25188;51.958;5.842;2023-08-12T04:38:03;14.40;;;9.88;;
39020;SDS011;25188;51.958;5.842;2023-08-12T04:40:29;16.40;;;11.00;;
39020;SDS011;25188;51.958;5.842;2023-08-12T04:42:54;15.27;;;10.02;;
39020;SDS011;25188;51.958;5.842;2023-08-12T04:45:20;16.92;;;10.57;;
39020;SDS011;25188;51.958;5.842;2023-08-12T04:47:46;14.93;;;10.32;;
39020;SDS011;25188;51.958;5.842;2023-08-12T04:50:12;13.30;;;10.05;;
39020;SDS011;25188;51.958;5.842;2023-08-12T04:52:38;17.65;;;10.30;;
39020;SDS011;25188;51.958;5.842;2023-08-12T04:55:04;13.60;;;9.77;;
39020;SDS011;25188;51.958;5.842;2023-08-12T04:57:30;15.20;;;10.52;;
39020;SDS011;25188;51.958;5.842;2023-08-12T04:59:55;14.45;;;10.93;;
39020;SDS011;25188;51.958;5.842;2023-08-12T05:02:21;15.35;;;9.77;;
39020;SDS011;25188;51.958;5.842;2023-08-12T05:04:48;16.00;;;10.23;;
39020;SDS011;25188;51.958;5.842;2023-08-12T05:07:15;13.27;;;10.05;;
39020;SDS011;25188;51.958;5.842;2023-08-12T05:09:41;16.00;;;10.57;;
39020;SDS011;25188;51.958;5.842;2023-08-12T05:12:09;11.70;;;8.85;;
39020;SDS011;25188;51.958;5.842;2023-08-12T05:14:35;13.57;;;9.20;;
39020;SDS011;25188;51.958;5.842;2023-08-12T05:17:02;13.73;;;9.07;;
39020;SDS011;25188;51.958;5.842;2023-08-12T05:19:27;11.10;;;8.25;;
39020;SDS011;25188;51.958;5.842;2023-08-12T05:21:53;11.68;;;7.60;;
39020;SDS011;25188;51.958;5.842;2023-08-12T05:24:18;11.95;;;7.43;;
39020;SDS011;25188;51.958;5.842;2023-08-12T05:26:44;13.00;;;7.53;;
39020;SDS011;25188;51.958;5.842;2023-08-12T05:29:10;12.98;;;7.65;;
39020;SDS011;25188;51.958;5.842;2023-08-12T05:31:35;10.82;;;7.22;;
39020;SDS011;25188;51.958;5.842;2023-08-12T05:34:01;10.77;;;6.50;;
39020;SDS011;25188;51.958;5.842;2023-08-12T05:36:27;13.45;;;7.95;;
39020;SDS011;25188;51.958;5.842;2023-08-12T05:38:53;12.52;;;8.18;;
39020;SDS011;25188;51.958;5.842;2023-08-12T05:41:19;12.85;;;8.15;;
39020;SDS011;25188;51.958;5.842;2023-08-12T05:43:45;14.68;;;8.20;;
39020;SDS011;25188;51.958;5.842;2023-08-12T05:46:11;14.05;;;8.40;;
39020;SDS011;25188;51.958;5.842;2023-08-12T05:48:36;16.48;;;8.25;;
39020;SDS011;25188;51.958;5.842;2023-08-12T05:51:02;13.38;;;8.00;;
39020;SDS011;25188;51.958;5.842;2023-08-12T05:53:27;13.00;;;8.55;;
39020;SDS011;25188;51.958;5.842;2023-08-12T05:55:53;11.52;;;7.55;;
39020;SDS011;25188;51.958;5.842;2023-08-12T05:58:19;11.13;;;7.25;;
39020;SDS011;25188;51.958;5.842;2023-08-12T06:00:45;14.00;;;8.20;;
39020;SDS011;25188;51.958;5.842;2023-08-12T06:03:11;14.65;;;8.10;;
39020;SDS011;25188;51.958;5.842;2023-08-12T06:05:37;12.88;;;8.57;;
39020;SDS011;25188;51.958;5.842;2023-08-12T06:08:05;13.35;;;9.05;;
39020;SDS011;25188;51.958;5.842;2023-08-12T06:10:30;14.30;;;7.65;;
39020;SDS011;25188;51.958;5.842;2023-08-12T06:12:56;14.13;;;7.47;;
39020;SDS011;25188;51.958;5.842;2023-08-12T06:15:22;15.38;;;8.40;;
39020;SDS011;25188;51.958;5.842;2023-08-12T06:17:47;11.30;;;7.35;;
39020;SDS011;25188;51.958;5.842;2023-08-12T06:20:13;13.40;;;8.25;;
39020;SDS011;25188;51.958;5.842;2023-08-12T06:22:39;11.40;;;6.93;;
39020;SDS011;25188;51.958;5.842;2023-08-12T06:25:04;10.18;;;6.50;;
39020;SDS011;25188;51.958;5.842;2023-08-12T06:27:30;12.07;;;7.60;;
39020;SDS011;25188;51.958;5.842;2023-08-12T06:29:56;10.38;;;6.57;;
39020;SDS011;25188;51.958;5.842;2023-08-12T06:32:21;13.82;;;6.47;;
39020;SDS011;25188;51.958;5.842;2023-08-12T06:34:47;11.40;;;5.88;;
39020;SDS011;25188;51.958;5.842;2023-08-12T06:37:12;10.10;;;5.40;;
39020;SDS011;25188;51.958;5.842;2023-08-12T06:39:38;8.20;;;4.97;;
39020;SDS011;25188;51.958;5.842;2023-08-12T06:42:04;9.52;;;5.13;;
39020;SDS011;25188;51.958;5.842;2023-08-12T06:44:29;9.77;;;4.95;;
39020;SDS011;25188;51.958;5.842;2023-08-12T06:46:55;9.90;;;4.18;;
39020;SDS011;25188;51.958;5.842;2023-08-12T06:49:21;9.18;;;4.35;;
39020;SDS011;25188;51.958;5.842;2023-08-12T06:51:46;7.15;;;4.35;;
39020;SDS011;25188;51.958;5.842;2023-08-12T06:54:12;7.03;;;4.53;;
39020;SDS011;25188;51.958;5.842;2023-08-12T06:56:37;7.90;;;4.45;;
39020;SDS011;25188;51.958;5.842;2023-08-12T06:59:03;7.20;;;4.43;;
39020;SDS011;25188;51.958;5.842;2023-08-12T07:01:29;8.20;;;4.50;;
39020;SDS011;25188;51.958;5.842;2023-08-12T07:03:55;8.15;;;4.10;;
39020;SDS011;25188;51.958;5.842;2023-08-12T07:06:20;7.28;;;3.90;;
39020;SDS011;25188;51.958;5.842;2023-08-12T07:08:46;6.55;;;4.32;;
39020;SDS011;25188;51.958;5.842;2023-08-12T07:11:12;6.85;;;4.40;;
39020;SDS011;25188;51.958;5.842;2023-08-12T07:13:38;7.50;;;3.75;;
39020;SDS011;25188;51.958;5.842;2023-08-12T07:16:03;8.85;;;4.35;;
39020;SDS011;25188;51.958;5.842;2023-08-12T07:18:29;7.03;;;3.97;;
39020;SDS011;25188;51.958;5.842;2023-08-12T07:20:55;7.60;;;4.20;;
39020;SDS011;25188;51.958;5.842;2023-08-12T07:23:23;9.85;;;4.78;;
39020;SDS011;25188;51.958;5.842;2023-08-12T07:25:49;7.57;;;5.03;;
39020;SDS011;25188;51.958;5.842;2023-08-12T07:28:14;7.90;;;4.28;;
39020;SDS011;25188;51.958;5.842;2023-08-12T07:30:40;6.63;;;4.22;;
39020;SDS011;25188;51.958;5.842;2023-08-12T07:33:06;9.13;;;4.45;;
39020;SDS011;25188;51.958;5.842;2023-08-12T07:35:32;9.57;;;4.90;;
39020;SDS011;25188;51.958;5.842;2023-08-12T07:37:57;7.47;;;3.90;;
39020;SDS011;25188;51.958;5.842;2023-08-12T07:40:23;7.18;;;3.75;;
39020;SDS011;25188;51.958;5.842;2023-08-12T07:42:49;8.65;;;4.32;;
39020;SDS011;25188;51.958;5.842;2023-08-12T07:45:14;7.05;;;3.50;;
39020;SDS011;25188;51.958;5.842;2023-08-12T07:47:40;7.45;;;3.85;;
39020;SDS011;25188;51.958;5.842;2023-08-12T07:50:06;9.45;;;4.47;;
39020;SDS011;25188;51.958;5.842;2023-08-12T07:52:32;6.95;;;3.45;;
39020;SDS011;25188;51.958;5.842;2023-08-12T07:54:57;7.38;;;3.88;;
39020;SDS011;25188;51.958;5.842;2023-08-12T07:57:23;6.78;;;3.30;;
39020;SDS011;25188;51.958;5.842;2023-08-12T07:59:52;6.57;;;3.33;;
39020;SDS011;25188;51.958;5.842;2023-08-12T08:02:17;6.72;;;3.33;;
39020;SDS011;25188;51.958;5.842;2023-08-12T08:04:43;4.43;;;2.60;;
39020;SDS011;25188;51.958;5.842;2023-08-12T08:07:10;5.00;;;3.20;;
39020;SDS011;25188;51.958;5.842;2023-08-12T08:09:35;5.32;;;3.17;;
39020;SDS011;25188;51.958;5.842;2023-08-12T08:12:02;5.50;;;2.85;;
39020;SDS011;25188;51.958;5.842;2023-08-12T08:14:27;4.47;;;2.50;;
39020;SDS011;25188;51.958;5.842;2023-08-12T08:16:53;5.15;;;2.38;;
39020;SDS011;25188;51.958;5.842;2023-08-12T08:19:19;4.43;;;2.47;;
39020;SDS011;25188;51.958;5.842;2023-08-12T08:21:44;4.03;;;1.70;;
39020;SDS011;25188;51.958;5.842;2023-08-12T08:24:10;3.17;;;1.67;;
39020;SDS011;25188;51.958;5.842;2023-08-12T08:26:38;2.65;;;1.17;;
39020;SDS011;25188;51.958;5.842;2023-08-12T08:29:05;2.90;;;1.50;;
39020;SDS011;25188;51.958;5.842;2023-08-12T08:31:31;3.50;;;1.20;;
39020;SDS011;25188;51.958;5.842;2023-08-12T08:33:56;2.30;;;1.17;;
39020;SDS011;25188;51.958;5.842;2023-08-12T08:36:22;3.55;;;1.45;;
39020;SDS011;25188;51.958;5.842;2023-08-12T08:38:48;2.85;;;1.23;;
39020;SDS011;25188;51.958;5.842;2023-08-12T08:41:14;2.65;;;1.30;;
39020;SDS011;25188;51.958;5.842;2023-08-12T08:43:42;2.38;;;1.00;;
39020;SDS011;25188;51.958;5.842;2023-08-12T08:46:13;2.33;;;1.20;;
39020;SDS011;25188;51.958;5.842;2023-08-12T08:48:41;3.58;;;1.77;;
39020;SDS011;25188;51.958;5.842;2023-08-12T08:51:10;2.55;;;1.50;;
39020;SDS011;25188;51.958;5.842;2023-08-12T08:53:39;4.70;;;1.63;;
39020;SDS011;25188;51.958;5.842;2023-08-12T08:56:06;2.45;;;1.60;;
39020;SDS011;25188;51.958;5.842;2023-08-12T08:58:33;2.60;;;1.40;;
39020;SDS011;25188;51.958;5.842;2023-08-12T09:00:59;2.78;;;1.77;;
39020;SDS011;25188;51.958;5.842;2023-08-12T09:03:25;2.75;;;1.17;;
39020;SDS011;25188;51.958;5.842;2023-08-12T09:05:52;4.80;;;1.65;;
39020;SDS011;25188;51.958;5.842;2023-08-12T09:08:20;2.75;;;1.30;;
39020;SDS011;25188;51.958;5.842;2023-08-12T09:10:47;2.47;;;1.50;;
39020;SDS011;25188;51.958;5.842;2023-08-12T09:13:13;2.30;;;1.30;;
39020;SDS011;25188;51.958;5.842;2023-08-12T09:15:40;2.53;;;1.40;;
39020;SDS011;25188;51.958;5.842;2023-08-12T09:18:05;2.45;;;1.48;;
39020;SDS011;25188;51.958;5.842;2023-08-12T09:20:32;2.30;;;1.50;;
39020;SDS011;25188;51.958;5.842;2023-08-12T09:22:58;2.83;;;1.48;;
39020;SDS011;25188;51.958;5.842;2023-08-12T09:25:28;3.15;;;1.60;;
39020;SDS011;25188;51.958;5.842;2023-08-12T09:28:03;1.90;;;1.02;;
39020;SDS011;25188;51.958;5.842;2023-08-12T09:30:29;3.42;;;0.70;;
39020;SDS011;25188;51.958;5.842;2023-08-12T09:32:59;1.00;;;0.70;;
39020;SDS011;25188;51.958;5.842;2023-08-12T09:35:35;0.85;;;0.40;;
39020;SDS011;25188;51.958;5.842;2023-08-12T09:38:20;1.05;;;0.50;;
39020;SDS011;25188;51.958;5.842;2023-08-12T09:40:46;0.70;;;0.40;;
39020;SDS011;25188;51.958;5.842;2023-08-12T09:43:12;0.40;;;0.22;;
39020;SDS011;25188;51.958;5.842;2023-08-12T09:45:38;0.90;;;0.30;;
39020;SDS011;25188;51.958;5.842;2023-08-12T09:48:04;0.50;;;0.30;;
39020;SDS011;25188;51.958;5.842;2023-08-12T09:50:32;0.40;;;0.20;;
39020;SDS011;25188;51.958;5.842;2023-08-12T09:52:58;0.82;;;0.40;;
39020;SDS011;25188;51.958;5.842;2023-08-12T09:55:26;0.43;;;0.20;;
39020;SDS011;25188;51.958;5.842;2023-08-12T09:57:53;1.10;;;0.30;;
39020;SDS011;25188;51.958;5.842;2023-08-12T10:00:20;0.52;;;0.28;;
39020;SDS011;25188;51.958;5.842;2023-08-12T10:02:48;0.50;;;0.30;;
39020;SDS011;25188;51.958;5.842;2023-08-12T10:05:24;0.75;;;0.40;;
39020;SDS011;25188;51.958;5.842;2023-08-12T10:07:53;0.70;;;0.30;;
39020;SDS011;25188;51.958;5.842;2023-08-12T10:10:20;0.80;;;0.40;;
39020;SDS011;25188;51.958;5.842;2023-08-12T10:12:47;1.23;;;0.40;;
39020;SDS011;25188;51.958;5.842;2023-08-12T10:15:13;0.80;;;0.30;;
39020;SDS011;25188;51.958;5.842;2023-08-12T10:17:40;0.30;;;0.20;;
39020;SDS011;25188;51.958;5.842;2023-08-12T10:20:06;0.43;;;0.30;;
39020;SDS011;25188;51.958;5.842;2023-08-12T10:22:34;0.65;;;0.30;;
39020;SDS011;25188;51.958;5.842;2023-08-12T10:25:02;0.80;;;0.40;;
39020;SDS011;25188;51.958;5.842;2023-08-12T10:27:28;1.63;;;0.40;;
39020;SDS011;25188;51.958;5.842;2023-08-12T10:29:57;1.02;;;0.50;;
39020;SDS011;25188;51.958;5.842;2023-08-12T10:32:24;2.55;;;0.82;;
39020;SDS011;25188;51.958;5.842;2023-08-12T10:34:56;1.55;;;0.50;;
39020;SDS011;25188;51.958;5.842;2023-08-12T10:37:26;2.67;;;0.90;;
39020;SDS011;25188;51.958;5.842;2023-08-12T10:39:53;2.55;;;0.80;;
39020;SDS011;25188;51.958;5.842;2023-08-12T10:45:05;2.55;;;0.90;;
39020;SDS011;25188;51.958;5.842;2023-08-12T10:47:31;2.22;;;0.70;;
39020;SDS011;25188;51.958;5.842;2023-08-12T10:49:59;3.78;;;0.60;;
39020;SDS011;25188;51.958;5.842;2023-08-12T10:52:26;3.15;;;0.70;;
39020;SDS011;25188;51.958;5.842;2023-08-12T10:54:53;2.17;;;0.70;;
39020;SDS011;25188;51.958;5.842;2023-08-12T10:57:19;2.28;;;0.70;;
39020;SDS011;25188;51.958;5.842;2023-08-12T11:00:03;2.50;;;0.57;;
39020;SDS011;25188;51.958;5.842;2023-08-12T11:05:05;2.35;;;0.57;;
39020;SDS011;25188;51.958;5.842;2023-08-12T11:07:40;3.67;;;0.50;;
39020;SDS011;25188;51.958;5.842;2023-08-12T11:10:16;4.03;;;0.70;;
39020;SDS011;25188;51.958;5.842;2023-08-12T11:12:53;3.88;;;0.63;;
39020;SDS011;25188;51.958;5.842;2023-08-12T11:15:30;3.15;;;0.55;;
39020;SDS011;25188;51.958;5.842;2023-08-12T11:17:59;2.85;;;0.45;;
39020;SDS011;25188;51.958;5.842;2023-08-12T11:20:32;1.25;;;0.50;;
39020;SDS011;25188;51.958;5.842;2023-08-12T11:22:58;7.15;;;0.70;;
39020;SDS011;25188;51.958;5.842;2023-08-12T11:25:24;2.50;;;0.60;;
39020;SDS011;25188;51.958;5.842;2023-08-12T11:27:52;3.60;;;1.02;;
39020;SDS011;25188;51.958;5.842;2023-08-12T11:30:19;2.95;;;0.80;;
39020;SDS011;25188;51.958;5.842;2023-08-12T11:32:47;3.53;;;0.60;;
39020;SDS011;25188;51.958;5.842;2023-08-12T11:35:17;2.97;;;0.95;;
39020;SDS011;25188;51.958;5.842;2023-08-12T11:37:45;3.70;;;0.73;;
39020;SDS011;25188;51.958;5.842;2023-08-12T11:40:12;2.30;;;0.70;;
39020;SDS011;25188;51.958;5.842;2023-08-12T11:42:41;5.45;;;1.00;;
39020;SDS011;25188;51.958;5.842;2023-08-12T11:45:08;3.15;;;0.80;;
39020;SDS011;25188;51.958;5.842;2023-08-12T11:47:34;4.55;;;0.88;;
39020;SDS011;25188;51.958;5.842;2023-08-12T11:50:04;4.68;;;0.90;;
39020;SDS011;25188;51.958;5.842;2023-08-12T11:52:30;4.72;;;0.85;;
39020;SDS011;25188;51.958;5.842;2023-08-12T11:54:57;3.65;;;0.60;;
39020;SDS011;25188;51.958;5.842;2023-08-12T11:57:23;4.15;;;0.60;;
39020;SDS011;25188;51.958;5.842;2023-08-12T11:59:51;3.85;;;0.88;;
39020;SDS011;25188;51.958;5.842;2023-08-12T12:02:16;3.00;;;0.63;;
39020;SDS011;25188;51.958;5.842;2023-08-12T12:04:42;4.50;;;0.98;;
39020;SDS011;25188;51.958;5.842;2023-08-12T12:07:18;6.05;;;0.85;;
39020;SDS011;25188;51.958;5.842;2023-08-12T12:09:44;4.45;;;0.80;;
39020;SDS011;25188;51.958;5.842;2023-08-12T12:12:10;2.80;;;0.70;;
39020;SDS011;25188;51.958;5.842;2023-08-12T12:14:36;3.90;;;0.80;;
39020;SDS011;25188;51.958;5.842;2023-08-12T12:17:06;4.28;;;1.00;;
39020;SDS011;25188;51.958;5.842;2023-08-12T12:19:33;4.30;;;0.80;;
39020;SDS011;25188;51.958;5.842;2023-08-12T12:21:58;3.58;;;0.63;;
39020;SDS011;25188;51.958;5.842;2023-08-12T12:24:29;3.50;;;1.08;;
39020;SDS011;25188;51.958;5.842;2023-08-12T12:26:55;3.47;;;0.90;;
39020;SDS011;25188;51.958;5.842;2023-08-12T12:29:22;5.80;;;1.00;;
39020;SDS011;25188;51.958;5.842;2023-08-12T12:31:48;5.25;;;1.02;;
39020;SDS011;25188;51.958;5.842;2023-08-12T12:34:13;4.10;;;1.20;;
39020;SDS011;25188;51.958;5.842;2023-08-12T12:36:39;4.03;;;0.77;;
39020;SDS011;25188;51.958;5.842;2023-08-12T12:39:06;1.77;;;0.55;;
39020;SDS011;25188;51.958;5.842;2023-08-12T12:41:32;4.70;;;0.80;;
39020;SDS011;25188;51.958;5.842;2023-08-12T12:44:01;3.78;;;1.00;;
39020;SDS011;25188;51.958;5.842;2023-08-12T12:46:28;2.70;;;0.70;;
39020;SDS011;25188;51.958;5.842;2023-08-12T12:48:53;3.63;;;0.68;;
39020;SDS011;25188;51.958;5.842;2023-08-12T12:51:19;2.75;;;0.63;;
39020;SDS011;25188;51.958;5.842;2023-08-12T12:53:45;4.22;;;0.95;;
39020;SDS011;25188;51.958;5.842;2023-08-12T12:56:10;4.30;;;0.68;;
39020;SDS011;25188;51.958;5.842;2023-08-12T12:58:37;4.88;;;1.17;;
39020;SDS011;25188;51.958;5.842;2023-08-12T13:01:03;5.30;;;0.80;;
39020;SDS011;25188;51.958;5.842;2023-08-12T13:03:30;5.20;;;0.70;;
39020;SDS011;25188;51.958;5.842;2023-08-12T13:05:56;2.83;;;0.70;;
39020;SDS011;25188;51.958;5.842;2023-08-12T13:08:22;4.78;;;0.90;;
39020;SDS011;25188;51.958;5.842;2023-08-12T13:10:48;3.53;;;0.60;;
39020;SDS011;25188;51.958;5.842;2023-08-12T13:13:14;6.70;;;0.90;;
39020;SDS011;25188;51.958;5.842;2023-08-12T13:15:43;6.50;;;0.98;;
39020;SDS011;25188;51.958;5.842;2023-08-12T13:18:10;7.53;;;1.13;;
39020;SDS011;25188;51.958;5.842;2023-08-12T13:20:36;3.47;;;0.77;;
39020;SDS011;25188;51.958;5.842;2023-08-12T13:23:02;4.63;;;0.80;;
39020;SDS011;25188;51.958;5.842;2023-08-12T13:25:29;2.10;;;0.70;;
39020;SDS011;25188;51.958;5.842;2023-08-12T13:27:57;4.68;;;0.98;;
39020;SDS011;25188;51.958;5.842;2023-08-12T13:30:23;5.88;;;1.00;;
39020;SDS011;25188;51.958;5.842;2023-08-12T13:32:49;5.47;;;1.20;;
39020;SDS011;25188;51.958;5.842;2023-08-12T13:35:14;4.78;;;1.02;;
39020;SDS011;25188;51.958;5.842;2023-08-12T13:37:40;3.70;;;0.70;;
39020;SDS011;25188;51.958;5.842;2023-08-12T13:40:07;3.55;;;0.80;;
39020;SDS011;25188;51.958;5.842;2023-08-12T13:42:34;5.40;;;1.35;;
39020;SDS011;25188;51.958;5.842;2023-08-12T13:44:59;4.22;;;1.13;;
39020;SDS011;25188;51.958;5.842;2023-08-12T13:47:25;5.30;;;1.08;;
39020;SDS011;25188;51.958;5.842;2023-08-12T13:49:50;6.13;;;0.98;;
39020;SDS011;25188;51.958;5.842;2023-08-12T13:52:16;5.45;;;0.90;;
39020;SDS011;25188;51.958;5.842;2023-08-12T13:54:42;5.75;;;1.30;;
39020;SDS011;25188;51.958;5.842;2023-08-12T13:57:07;5.53;;;1.10;;
39020;SDS011;25188;51.958;5.842;2023-08-12T13:59:33;6.15;;;1.00;;
39020;SDS011;25188;51.958;5.842;2023-08-12T14:01:59;5.05;;;0.82;;
39020;SDS011;25188;51.958;5.842;2023-08-12T14:04:24;5.38;;;0.98;;
39020;SDS011;25188;51.958;5.842;2023-08-12T14:06:50;6.38;;;0.95;;
39020;SDS011;25188;51.958;5.842;2023-08-12T14:09:16;4.18;;;0.90;;
39020;SDS011;25188;51.958;5.842;2023-08-12T14:11:43;6.80;;;1.17;;
39020;SDS011;25188;51.958;5.842;2023-08-12T14:14:09;4.05;;;0.98;;
39020;SDS011;25188;51.958;5.842;2023-08-12T14:16:35;4.78;;;1.05;;
39020;SDS011;25188;51.958;5.842;2023-08-12T14:19:01;9.63;;;1.20;;
39020;SDS011;25188;51.958;5.842;2023-08-12T14:21:26;6.28;;;1.10;;
39020;SDS011;25188;51.958;5.842;2023-08-12T14:23:52;6.28;;;1.25;;
39020;SDS011;25188;51.958;5.842;2023-08-12T14:26:17;6.25;;;1.52;;
39020;SDS011;25188;51.958;5.842;2023-08-12T14:28:43;7.45;;;1.50;;
39020;SDS011;25188;51.958;5.842;2023-08-12T14:31:09;6.55;;;1.23;;
39020;SDS011;25188;51.958;5.842;2023-08-12T14:33:34;7.35;;;1.30;;
39020;SDS011;25188;51.958;5.842;2023-08-12T14:36:02;6.15;;;1.00;;
39020;SDS011;25188;51.958;5.842;2023-08-12T14:38:28;5.32;;;1.15;;
39020;SDS011;25188;51.958;5.842;2023-08-12T14:40:54;5.28;;;1.15;;
39020;SDS011;25188;51.958;5.842;2023-08-12T14:43:20;5.88;;;1.20;;
39020;SDS011;25188;51.958;5.842;2023-08-12T14:45:45;5.25;;;0.90;;